createdAt,value
2022-12-04T00:14:21.658Z,31.85
2022-12-04T00:29:23.578Z,29.83
2022-12-04T00:44:25.539Z,27.25
2022-12-04T00:59:27.479Z,28.60
2022-12-04T01:14:29.519Z,24.95
2022-12-04T01:29:31.439Z,25.52
2022-12-04T01:44:33.425Z,23.23
2022-12-04T02:00:06.099Z,24.10
2022-12-04T02:15:28.765Z,23.75
2022-12-04T02:30:32.521Z,23.60
2022-12-04T02:45:41.446Z,22.95
2022-12-04T03:00:45.595Z,23.55
2022-12-04T03:15:54.740Z,22.17
2022-12-04T03:31:03.873Z,21.92
2022-12-04T03:46:26.166Z,22.65
2022-12-04T04:01:36.824Z,21.80
2022-12-04T04:17:01.815Z,19.33
2022-12-04T04:32:20.376Z,16.75
2022-12-04T04:47:30.605Z,19.92
2022-12-04T05:02:33.933Z,19.73
2022-12-04T05:17:36.625Z,17.63
2022-12-04T05:32:38.796Z,18.33
2022-12-04T05:47:44.679Z,17.73
2022-12-04T06:02:46.660Z,19.05
2022-12-04T06:17:48.647Z,18.55
2022-12-04T06:32:50.556Z,16.92
2022-12-04T06:47:52.467Z,17.92
2022-12-04T07:02:54.415Z,18.20
2022-12-04T07:17:56.625Z,17.33
2022-12-04T07:32:58.516Z,16.98
2022-12-04T07:48:00.442Z,18.98
2022-12-04T08:03:02.312Z,19.90
2022-12-04T08:18:04.223Z,19.42
2022-12-04T08:33:06.143Z,21.08
2022-12-04T08:48:08.032Z,20.20
2022-12-04T09:03:14.145Z,19.45
2022-12-04T09:18:16.081Z,20.88
2022-12-04T09:33:17.934Z,17.85
2022-12-04T09:48:22.714Z,18.52
2022-12-04T10:03:28.643Z,19.52
2022-12-04T10:18:58.902Z,18.13
2022-12-04T10:34:12.847Z,17.80
2022-12-04T10:49:38.143Z,16.77
2022-12-04T11:04:42.227Z,17.20
2022-12-04T11:19:44.261Z,17.13
2022-12-04T11:34:46.623Z,17.52
2022-12-04T11:50:38.366Z,17.75
2022-12-04T12:05:43.491Z,16.95
2022-12-04T12:21:01.747Z,18.40
2022-12-04T12:36:12.025Z,18.10
2022-12-04T12:51:38.763Z,19.25
2022-12-04T13:06:43.466Z,18.77
2022-12-04T13:22:07.324Z,18.38
2022-12-04T13:37:09.285Z,17.42
2022-12-04T13:52:40.404Z,17.08
2022-12-04T14:07:55.839Z,15.95
2022-12-04T14:23:18.189Z,16.63
2022-12-04T14:38:23.181Z,15.32
2022-12-04T14:53:50.924Z,16.17
2022-12-04T15:09:18.525Z,15.60
2022-12-04T15:24:23.623Z,15.40
2022-12-04T15:39:30.863Z,14.95
2022-12-04T15:54:33.685Z,14.80
2022-12-04T16:09:35.622Z,18.60
2022-12-04T16:24:40.006Z,17.00
2022-12-04T16:39:42.019Z,16.63
2022-12-04T16:54:43.998Z,15.35
2022-12-04T17:09:46.219Z,15.50
2022-12-04T17:24:54.307Z,15.73
2022-12-04T17:39:57.840Z,15.80
2022-12-04T17:55:00.242Z,14.50
2022-12-04T18:10:02.214Z,14.88
2022-12-04T18:25:04.266Z,15.27
2022-12-04T18:40:07.578Z,12.30
2022-12-04T18:55:10.018Z,11.63
2022-12-04T19:10:12.145Z,14.45
2022-12-04T19:25:14.122Z,12.25
2022-12-04T19:40:16.124Z,11.20
2022-12-04T19:55:18.185Z,11.63
2022-12-04T20:10:21.264Z,11.70
2022-12-04T20:25:23.445Z,11.85
2022-12-04T20:40:25.444Z,12.68
2022-12-04T20:55:27.445Z,13.05
2022-12-04T21:10:29.454Z,12.45
2022-12-04T21:25:31.386Z,13.48
2022-12-04T21:40:39.014Z,14.75
2022-12-04T21:55:56.165Z,13.57
2022-12-04T22:10:58.186Z,13.18
2022-12-04T22:26:11.465Z,12.88
2022-12-04T22:41:15.706Z,14.23
2022-12-04T22:56:17.625Z,14.82
2022-12-04T23:11:21.637Z,13.23
2022-12-04T23:26:35.594Z,15.73
2022-12-04T23:41:37.517Z,12.93
2022-12-04T23:56:39.440Z,12.00
